Time;durP1;ratioP1;P1;durP2;ratioP2;P2;SDS_P1;SDS_P2;PMS_P1;PMS_P2;Temp;Humidity;BMP_temperature;BMP_pressure;BME280_temperature;BME280_humidity;BME280_pressure;Samples;Min_cycle;Max_cycle;Signal;HPM_P1;HPM_P2
2022/01/19 06:00:27;;;;;;;14.33;12.83;;;4.30;97.20;;;;;;1694173;29;20194;-82
2022/01/19 06:01:19;;;;;;;16.83;12.68;;;4.30;97.20;;;;;;1694329;29;20244;-83
2022/01/19 06:02:11;;;;;;;13.48;12.07;;;4.30;97.20;;;;;;1694580;29;20211;-83
2022/01/19 06:03:02;;;;;;;14.18;11.60;;;4.30;97.20;;;;;;1694897;29;20216;-82
2022/01/19 06:03:54;;;;;;;16.10;12.80;;;4.30;97.20;;;;;;1693843;29;20202;-84
2022/01/19 06:04:44;;;;;;;13.57;11.88;;;4.30;97.20;;;;;;1694464;29;20975;-84
2022/01/19 06:05:36;;;;;;;14.80;11.27;;;4.30;97.20;;;;;;1694689;29;20671;-83
2022/01/19 06:06:27;;;;;;;12.40;11.10;;;4.30;97.20;;;;;;1694659;29;20672;-82
2022/01/19 06:07:19;;;;;;;13.03;11.03;;;4.30;97.20;;;;;;1694239;29;20750;-82
2022/01/19 06:08:28;;;;;;;12.80;10.65;;;4.40;97.20;;;;;;1693989;29;20208;-83
2022/01/19 06:09:33;;;;;;;13.68;11.00;;;4.40;97.20;;;;;;1694309;29;20208;-83
2022/01/19 06:10:42;;;;;;;11.45;10.23;;;4.40;97.20;;;;;;1693992;29;20211;-84
2022/01/19 06:11:34;;;;;;;14.93;11.85;;;4.40;97.20;;;;;;1694634;29;20204;-84
2022/01/19 06:12:25;;;;;;;13.65;11.60;;;4.40;97.20;;;;;;1694402;29;20678;-83
2022/01/19 06:13:18;;;;;;;13.17;11.50;;;4.40;97.20;;;;;;1694285;29;20656;-82
2022/01/19 06:14:09;;;;;;;14.68;11.77;;;4.40;97.20;;;;;;1694471;29;20208;-83
2022/01/19 06:15:01;;;;;;;15.40;12.10;;;4.40;97.20;;;;;;1694436;29;20196;-83
2022/01/19 06:15:54;;;;;;;14.35;10.85;;;4.40;97.20;;;;;;1694435;29;20203;-81
2022/01/19 06:16:45;;;;;;;11.73;10.52;;;4.30;97.20;;;;;;1694645;29;20291;-83
2022/01/19 06:17:37;;;;;;;13.80;10.57;;;4.30;97.20;;;;;;1694580;29;20207;-81
2022/01/19 06:18:28;;;;;;;16.90;10.70;;;4.30;97.20;;;;;;1694369;29;20493;-83
2022/01/19 06:19:20;;;;;;;12.65;11.35;;;4.20;97.20;;;;;;1694047;29;20196;-82
2022/01/19 06:20:11;;;;;;;11.63;10.40;;;4.20;97.20;;;;;;1694533;29;20241;-80
2022/01/19 06:21:03;;;;;;;13.55;11.65;;;4.20;97.20;;;;;;1695850;29;20707;-82
2022/01/19 06:21:54;;;;;;;13.32;11.07;;;4.20;97.20;;;;;;1695801;29;20634;-82
2022/01/19 06:22:46;;;;;;;13.02;11.57;;;4.10;97.20;;;;;;1696065;29;20668;-82
2022/01/19 06:23:37;;;;;;;13.68;11.65;;;4.10;97.20;;;;;;1696059;29;20239;-81
2022/01/19 06:24:28;;;;;;;13.50;10.00;;;4.10;97.20;;;;;;1695554;29;20216;-84
2022/01/19 06:25:20;;;;;;;13.10;11.13;;;4.10;97.20;;;;;;1695402;29;20208;-83
2022/01/19 06:26:10;;;;;;;14.20;12.45;;;4.00;97.20;;;;;;1695785;29;20234;-82
2022/01/19 06:27:02;;;;;;;14.07;11.90;;;4.00;97.20;;;;;;1695515;29;20200;-81
2022/01/19 06:27:53;;;;;;;11.48;10.35;;;4.10;97.20;;;;;;1695712;29;20250;-81
2022/01/19 06:28:45;;;;;;;19.00;11.50;;;4.10;97.20;;;;;;1701042;29;20667;-81
2022/01/19 06:29:36;;;;;;;13.98;10.77;;;4.10;97.20;;;;;;1702309;29;20455;-82
2022/01/19 06:30:28;;;;;;;15.48;10.95;;;4.10;97.20;;;;;;1700565;29;20207;-81
2022/01/19 06:31:20;;;;;;;15.70;11.10;;;4.10;97.20;;;;;;1695392;29;20207;-81
2022/01/19 06:32:12;;;;;;;13.63;12.07;;;4.10;97.20;;;;;;1695780;29;20630;-81
2022/01/19 06:33:03;;;;;;;13.45;11.02;;;4.10;97.20;;;;;;1695776;29;20222;-82
2022/01/19 06:33:54;;;;;;;12.23;11.07;;;4.10;97.20;;;;;;1695799;29;20218;-82
2022/01/19 06:34:45;;;;;;;15.20;11.73;;;4.10;97.20;;;;;;1695841;29;20452;-81
2022/01/19 06:35:37;;;;;;;14.33;11.83;;;4.20;97.20;;;;;;1695819;29;20214;-81
2022/01/19 06:36:28;;;;;;;14.85;11.20;;;4.20;97.20;;;;;;1695332;29;20218;-82
2022/01/19 06:37:19;;;;;;;13.47;10.10;;;4.20;97.20;;;;;;1695611;29;20196;-82
2022/01/19 06:38:10;;;;;;;11.82;10.40;;;4.20;97.20;;;;;;1695412;29;20215;-82
2022/01/19 06:39:02;;;;;;;13.17;11.20;;;4.20;97.20;;;;;;1695969;29;20202;-81
2022/01/19 06:39:53;;;;;;;15.38;12.68;;;4.20;97.20;;;;;;1695591;29;20235;-82
2022/01/19 06:40:44;;;;;;;12.87;11.20;;;4.20;97.20;;;;;;1695343;29;20330;-82
2022/01/19 06:41:36;;;;;;;11.95;10.75;;;4.20;97.20;;;;;;1695527;29;20215;-82
2022/01/19 06:42:29;;;;;;;14.23;11.52;;;4.20;97.20;;;;;;1695504;29;20215;-83
2022/01/19 06:43:20;;;;;;;13.50;11.00;;;4.20;97.20;;;;;;1695726;29;20213;-82
2022/01/19 06:44:12;;;;;;;13.70;11.07;;;4.20;97.20;;;;;;1695949;29;20244;-82
2022/01/19 06:45:04;;;;;;;13.77;11.15;;;4.20;97.20;;;;;;1696084;29;20227;-82
2022/01/19 06:45:58;;;;;;;13.05;11.27;;;4.20;97.20;;;;;;1696949;29;20620;-82
2022/01/19 06:46:50;;;;;;;12.63;10.63;;;4.20;97.20;;;;;;1693494;29;20204;-82
2022/01/19 06:47:42;;;;;;;14.75;11.43;;;4.20;97.20;;;;;;1700437;29;20702;-82
2022/01/19 06:48:33;;;;;;;13.90;11.43;;;4.20;97.20;;;;;;1699830;29;20215;-82
2022/01/19 06:49:24;;;;;;;12.17;10.87;;;4.30;97.20;;;;;;1696384;29;20204;-82
2022/01/19 06:50:19;;;;;;;13.15;10.32;;;4.30;97.20;;;;;;1695781;29;20451;-82
2022/01/19 06:51:10;;;;;;;12.73;10.50;;;4.30;97.20;;;;;;1692210;29;20207;-82
2022/01/19 06:52:02;;;;;;;12.75;10.40;;;4.30;97.20;;;;;;1689834;29;20231;-82
2022/01/19 06:52:53;;;;;;;11.50;10.30;;;4.30;97.20;;;;;;1689596;29;20201;-82
2022/01/19 06:53:44;;;;;;;15.15;10.27;;;4.30;97.20;;;;;;1689718;29;20700;-82
2022/01/19 06:54:36;;;;;;;12.27;11.00;;;4.30;97.20;;;;;;1690110;29;20200;-82
2022/01/19 06:55:27;;;;;;;12.95;10.95;;;4.30;97.20;;;;;;1689771;29;20480;-82
2022/01/19 06:56:18;;;;;;;14.67;10.20;;;4.30;97.20;;;;;;1693087;29;20203;-82
2022/01/19 06:57:09;;;;;;;11.63;10.05;;;4.30;97.20;;;;;;1695678;29;20467;-82
2022/01/19 06:58:01;;;;;;;14.40;10.70;;;4.30;97.20;;;;;;1695950;29;20210;-81
2022/01/19 06:58:52;;;;;;;12.27;10.95;;;4.30;97.20;;;;;;1695834;29;20563;-82
2022/01/19 06:59:44;;;;;;;11.40;10.20;;;4.30;97.20;;;;;;1695471;29;20572;-82
2022/01/19 07:00:34;;;;;;;14.65;10.85;;;4.30;97.20;;;;;;1695325;29;20240;-82
2022/01/19 07:01:31;;;;;;;13.07;10.70;;;4.30;97.20;;;;;;1696155;29;20242;-82
2022/01/19 07:02:24;;;;;;;13.27;11.13;;;4.30;97.20;;;;;;1695921;29;20211;-82
2022/01/19 07:03:15;;;;;;;11.85;10.70;;;4.30;97.20;;;;;;1695859;29;20235;-82
2022/01/19 07:04:06;;;;;;;11.60;10.40;;;4.30;97.20;;;;;;1695367;29;20199;-82
2022/01/19 07:05:00;;;;;;;12.55;11.23;;;4.30;97.20;;;;;;1695229;29;20232;-82
2022/01/19 07:05:51;;;;;;;11.85;10.65;;;4.30;97.20;;;;;;1695242;29;20905;-82
2022/01/19 07:06:42;;;;;;;11.80;10.07;;;4.30;97.20;;;;;;1695408;29;20679;-82
2022/01/19 07:07:33;;;;;;;12.40;10.60;;;4.40;97.20;;;;;;1694696;29;20519;-82
2022/01/19 07:08:25;;;;;;;11.63;10.43;;;4.40;97.20;;;;;;1695182;29;20204;-82
2022/01/19 07:09:16;;;;;;;12.43;10.00;;;4.40;97.20;;;;;;1695923;29;20292;-82
2022/01/19 07:10:09;;;;;;;14.50;10.30;;;4.50;97.20;;;;;;1695886;29;20230;-82
2022/01/19 07:11:00;;;;;;;12.80;10.60;;;4.50;97.20;;;;;;1695831;29;20238;-82
2022/01/19 07:11:52;;;;;;;15.37;11.00;;;4.50;97.20;;;;;;1695871;29;20315;-82
2022/01/19 07:12:42;;;;;;;12.52;11.25;;;4.50;97.20;;;;;;1695784;29;20211;-82
2022/01/19 07:13:34;;;;;;;12.27;10.70;;;4.50;97.20;;;;;;1695812;29;20204;-82
2022/01/19 07:14:25;;;;;;;11.57;10.38;;;4.50;97.20;;;;;;1695809;29;20207;-82
2022/01/19 07:15:17;;;;;;;11.53;10.07;;;4.50;97.20;;;;;;1695781;29;20279;-82
2022/01/19 07:16:08;;;;;;;13.48;11.55;;;4.50;97.20;;;;;;1695747;29;20219;-82
2022/01/19 07:17:00;;;;;;;14.03;12.13;;;4.50;97.20;;;;;;1695727;29;20215;-82
2022/01/19 07:17:52;;;;;;;12.30;11.10;;;4.50;97.20;;;;;;1695311;29;20204;-82
2022/01/19 07:18:44;;;;;;;12.20;10.70;;;4.50;97.20;;;;;;1695186;29;20219;-81
2022/01/19 07:19:35;;;;;;;12.48;11.20;;;4.50;97.20;;;;;;1695659;29;20208;-82
2022/01/19 07:20:26;;;;;;;13.90;10.60;;;4.50;97.20;;;;;;1695849;29;20210;-82
2022/01/19 07:21:17;;;;;;;12.95;10.77;;;4.50;97.20;;;;;;1695826;29;20212;-82
2022/01/19 07:22:09;;;;;;;13.73;12.23;;;4.50;97.20;;;;;;1695699;29;20287;-83
2022/01/19 07:23:01;;;;;;;14.27;11.75;;;4.50;97.20;;;;;;1695575;29;20231;-82
2022/01/19 07:23:53;;;;;;;13.23;11.48;;;4.50;97.20;;;;;;1695626;29;20290;-82
2022/01/19 07:24:44;;;;;;;13.65;12.27;;;4.50;97.20;;;;;;1695866;29;20243;-82
2022/01/19 07:25:35;;;;;;;14.47;11.80;;;4.50;97.20;;;;;;1695809;29;20214;-82
2022/01/19 07:26:26;;;;;;;13.27;11.05;;;4.50;97.20;;;;;;1695765;29;20219;-82
2022/01/19 07:27:18;;;;;;;12.23;10.97;;;4.40;97.20;;;;;;1695603;29;20203;-82
2022/01/19 07:28:11;;;;;;;16.85;11.95;;;4.40;97.20;;;;;;1695447;29;20208;-82
2022/01/19 07:29:03;;;;;;;12.10;10.98;;;4.40;97.20;;;;;;1695787;29;20235;-82
2022/01/19 07:29:54;;;;;;;13.65;12.25;;;4.40;97.20;;;;;;1695852;29;20226;-82
2022/01/19 07:30:45;;;;;;;12.75;11.38;;;4.40;97.20;;;;;;1695225;29;20248;-82
2022/01/19 07:31:37;;;;;;;12.87;11.53;;;4.40;97.20;;;;;;1694828;29;20211;-82
2022/01/19 07:32:30;;;;;;;13.15;11.63;;;4.40;97.20;;;;;;1694697;29;20487;-82
2022/01/19 07:33:23;;;;;;;13.13;10.90;;;4.40;97.20;;;;;;1695143;29;20215;-82
2022/01/19 07:34:14;;;;;;;13.07;11.30;;;4.40;97.20;;;;;;1694902;29;20204;-82
2022/01/19 07:35:07;;;;;;;12.70;11.50;;;4.40;97.20;;;;;;1695425;29;20582;-82
2022/01/19 07:35:58;;;;;;;12.45;11.25;;;4.40;97.20;;;;;;1695501;29;20212;-81
2022/01/19 07:36:50;;;;;;;13.85;12.30;;;4.40;97.20;;;;;;1695509;29;20547;-82
2022/01/19 07:37:41;;;;;;;12.20;10.93;;;4.40;97.20;;;;;;1695190;29;20238;-82
2022/01/19 07:38:33;;;;;;;13.98;12.30;;;4.40;97.20;;;;;;1695575;29;20204;-82
2022/01/19 07:39:24;;;;;;;12.95;11.75;;;4.40;97.20;;;;;;1695338;29;20696;-82
2022/01/19 07:40:16;;;;;;;13.30;11.33;;;4.50;97.20;;;;;;1695442;29;20686;-82
2022/01/19 07:41:07;;;;;;;12.52;11.32;;;4.50;97.20;;;;;;1695594;29;20735;-82
2022/01/19 07:41:59;;;;;;;13.10;11.80;;;4.50;97.20;;;;;;1695801;29;20219;-82
2022/01/19 07:42:51;;;;;;;12.50;11.13;;;4.50;97.20;;;;;;1695313;29;20455;-82
2022/01/19 07:43:43;;;;;;;12.68;11.45;;;4.50;97.20;;;;;;1695525;29;20211;-82
2022/01/19 07:44:33;;;;;;;13.88;11.45;;;4.50;97.20;;;;;;1695510;29;20602;-82
2022/01/19 07:45:25;;;;;;;13.67;11.13;;;4.50;97.20;;;;;;1695660;29;20598;-82
2022/01/19 07:46:16;;;;;;;13.15;11.75;;;4.50;97.20;;;;;;1695397;29;20204;-82
2022/01/19 07:47:09;;;;;;;15.05;12.05;;;4.40;97.20;;;;;;1695494;29;20208;-82
2022/01/19 07:47:59;;;;;;;13.23;11.82;;;4.40;97.20;;;;;;1695054;29;20699;-80
2022/01/19 07:48:53;;;;;;;14.13;12.50;;;4.40;97.20;;;;;;1695489;29;20719;-82
2022/01/19 07:49:43;;;;;;;13.60;12.30;;;4.40;97.20;;;;;;1695462;29;20591;-82
2022/01/19 07:50:35;;;;;;;13.60;12.10;;;4.40;97.20;;;;;;1695487;29;20602;-82
2022/01/19 07:51:26;;;;;;;14.75;13.25;;;4.40;97.20;;;;;;1695242;29;20235;-82
2022/01/19 07:52:18;;;;;;;12.70;11.40;;;4.40;97.20;;;;;;1695591;29;20206;-82
2022/01/19 07:53:08;;;;;;;14.40;11.98;;;4.40;97.20;;;;;;1695535;29;20580;-82
2022/01/19 07:54:00;;;;;;;14.37;11.60;;;4.40;97.20;;;;;;1695419;29;20245;-82
2022/01/19 07:54:51;;;;;;;16.15;12.68;;;4.40;97.20;;;;;;1695450;29;20480;-81
2022/01/19 07:55:43;;;;;;;13.30;11.90;;;4.50;97.20;;;;;;1695586;29;20192;-82
2022/01/19 07:56:36;;;;;;;15.60;11.73;;;4.50;97.20;;;;;;1695378;29;20204;-82
2022/01/19 07:57:27;;;;;;;12.60;11.38;;;4.50;97.20;;;;;;1695442;29;20211;-82
2022/01/19 07:58:19;;;;;;;13.27;11.48;;;4.40;97.20;;;;;;1695317;29;20231;-82
2022/01/19 07:59:10;;;;;;;13.52;11.38;;;4.40;97.20;;;;;;1695111;29;20204;-82
2022/01/19 08:00:02;;;;;;;13.87;11.23;;;4.40;97.20;;;;;;1695493;29;20288;-82
2022/01/19 08:00:52;;;;;;;14.13;12.63;;;4.40;97.20;;;;;;1695084;29;20242;-82
2022/01/19 08:01:44;;;;;;;12.27;11.07;;;4.40;97.20;;;;;;1695197;29;20295;-82
2022/01/19 08:02:35;;;;;;;13.13;11.93;;;4.40;97.20;;;;;;1695438;29;20204;-82
2022/01/19 08:03:27;;;;;;;14.53;13.00;;;4.40;97.20;;;;;;1695328;29;20230;-82
2022/01/19 08:04:19;;;;;;;12.43;11.15;;;4.30;97.20;;;;;;1695384;29;20648;-82
2022/01/19 08:05:11;;;;;;;13.45;12.00;;;4.30;97.20;;;;;;1695521;29;20375;-82
2022/01/19 08:06:02;;;;;;;13.75;12.45;;;4.30;97.20;;;;;;1695409;29;20204;-82
2022/01/19 08:06:54;;;;;;;14.20;12.77;;;4.20;97.20;;;;;;1695158;29;20202;-82
2022/01/19 08:07:45;;;;;;;17.50;12.65;;;4.20;97.20;;;;;;1694884;29;20246;-82
2022/01/19 08:08:36;;;;;;;12.90;11.63;;;4.20;97.20;;;;;;1695210;29;20660;-82
2022/01/19 08:09:27;;;;;;;14.45;12.43;;;4.10;97.20;;;;;;1695433;29;20212;-82
2022/01/19 08:10:19;;;;;;;13.07;11.70;;;4.10;97.20;;;;;;1695185;29;20272;-82
2022/01/19 08:11:09;;;;;;;13.93;12.63;;;4.10;97.20;;;;;;1695368;29;20212;-82
2022/01/19 08:12:01;;;;;;;14.00;12.47;;;4.10;97.20;;;;;;1694978;29;20200;-82
2022/01/19 08:12:52;;;;;;;13.50;12.10;;;4.10;97.20;;;;;;1695488;29;20591;-82
2022/01/19 08:13:44;;;;;;;14.90;13.40;;;4.10;97.20;;;;;;1695336;29;20200;-82
2022/01/19 08:14:35;;;;;;;14.95;13.40;;;4.10;97.20;;;;;;1695258;29;20455;-82
2022/01/19 08:15:27;;;;;;;16.13;14.50;;;4.10;97.20;;;;;;1695378;29;20208;-83
2022/01/19 08:16:18;;;;;;;14.93;13.10;;;4.10;97.20;;;;;;1695569;29;20200;-83
2022/01/19 08:17:11;;;;;;;14.50;12.90;;;4.10;97.20;;;;;;1695279;29;20210;-83
2022/01/19 08:18:03;;;;;;;14.13;12.82;;;4.10;97.20;;;;;;1695102;29;20203;-82
2022/01/19 08:18:54;;;;;;;14.38;12.80;;;4.10;97.20;;;;;;1695390;29;20251;-82
2022/01/19 08:19:48;;;;;;;15.27;13.20;;;4.10;97.20;;;;;;1695600;29;20223;-82
2022/01/19 08:20:42;;;;;;;16.02;13.90;;;4.20;97.20;;;;;;1695447;29;20707;-82
2022/01/19 08:21:33;;;;;;;14.57;13.00;;;4.20;97.20;;;;;;1695409;29;20286;-82
2022/01/19 08:22:24;;;;;;;14.07;12.68;;;4.20;97.20;;;;;;1695566;29;20255;-83
2022/01/19 08:23:16;;;;;;;14.93;13.40;;;4.20;97.20;;;;;;1695200;29;20215;-82
2022/01/19 08:24:07;;;;;;;14.82;13.32;;;4.20;97.20;;;;;;1695609;29;20204;-82
2022/01/19 08:24:58;;;;;;;14.47;12.97;;;4.20;97.20;;;;;;1695501;29;20208;-82
2022/01/19 08:25:49;;;;;;;16.83;13.20;;;4.20;97.20;;;;;;1695347;29;20211;-82
2022/01/19 08:26:41;;;;;;;15.90;13.80;;;4.30;97.20;;;;;;1695554;29;20828;-82
2022/01/19 08:27:32;;;;;;;14.70;13.30;;;4.30;97.20;;;;;;1696674;29;20582;-82
2022/01/19 08:28:24;;;;;;;15.63;13.93;;;4.30;97.20;;;;;;1696122;29;20249;-82
2022/01/19 08:29:15;;;;;;;17.38;14.45;;;4.40;97.20;;;;;;1695720;29;20472;-82
2022/01/19 08:30:09;;;;;;;14.87;13.20;;;4.40;97.20;;;;;;1695239;29;20210;-82
2022/01/19 08:31:01;;;;;;;15.65;13.68;;;4.50;97.20;;;;;;1695400;29;20244;-82
2022/01/19 08:31:52;;;;;;;13.45;12.25;;;4.50;97.20;;;;;;1695239;29;20243;-82
2022/01/19 08:32:44;;;;;;;14.77;13.20;;;4.50;97.20;;;;;;1695039;29;20203;-82
2022/01/19 08:33:35;;;;;;;14.60;13.15;;;4.50;97.20;;;;;;1695267;29;20282;-82
2022/01/19 08:34:26;;;;;;;15.20;13.70;;;4.60;97.20;;;;;;1695310;29;20204;-83
2022/01/19 08:35:19;;;;;;;16.13;14.32;;;4.60;97.20;;;;;;1695185;29;20451;-82
2022/01/19 08:36:10;;;;;;;14.13;12.63;;;4.60;97.20;;;;;;1695171;29;20203;-82
2022/01/19 08:37:02;;;;;;;14.82;13.32;;;4.60;97.20;;;;;;1695278;29;20212;-82
2022/01/19 08:37:54;;;;;;;14.90;13.35;;;4.60;97.20;;;;;;1694875;29;20511;-82
2022/01/19 08:38:45;;;;;;;16.45;14.07;;;4.70;97.20;;;;;;1695154;29;20262;-82
2022/01/19 08:39:38;;;;;;;14.80;13.47;;;4.70;97.20;;;;;;1695047;29;20232;-82
2022/01/19 08:40:30;;;;;;;15.82;13.93;;;4.70;97.20;;;;;;1694864;29;20312;-82
2022/01/19 08:41:22;;;;;;;13.98;12.65;;;4.70;97.20;;;;;;1695157;29;20635;-82
2022/01/19 08:42:13;;;;;;;15.20;13.70;;;4.70;97.20;;;;;;1695116;29;20218;-82
2022/01/19 08:43:05;;;;;;;14.60;13.20;;;4.80;97.20;;;;;;1694684;29;20199;-83
2022/01/19 08:43:56;;;;;;;15.45;13.27;;;4.80;97.20;;;;;;1695168;29;20452;-82
2022/01/19 08:44:48;;;;;;;15.93;14.30;;;4.80;97.20;;;;;;1695059;29;20659;-82
2022/01/19 08:45:39;;;;;;;14.00;12.60;;;4.80;97.20;;;;;;1695274;29;20696;-82
2022/01/19 08:46:30;;;;;;;15.70;13.80;;;4.80;97.20;;;;;;1695139;29;20573;-82
2022/01/19 08:47:22;;;;;;;16.13;13.70;;;4.80;97.20;;;;;;1695303;29;20240;-82
2022/01/19 08:48:14;;;;;;;15.75;14.23;;;4.90;97.20;;;;;;1694521;29;20295;-82
2022/01/19 08:49:05;;;;;;;14.50;12.95;;;4.90;97.20;;;;;;1695077;29;20219;-81
2022/01/19 08:49:56;;;;;;;19.37;15.00;;;4.90;97.20;;;;;;1695225;29;20214;-82
2022/01/19 08:50:49;;;;;;;16.55;14.80;;;4.90;97.20;;;;;;1694944;29;20495;-82
2022/01/19 08:51:40;;;;;;;16.02;14.20;;;5.00;97.20;;;;;;1695260;29;20204;-82
2022/01/19 08:52:32;;;;;;;14.67;13.17;;;5.00;97.20;;;;;;1694866;29;20686;-82
2022/01/19 08:53:23;;;;;;;15.40;13.55;;;5.00;97.20;;;;;;1695398;29;20215;-82
2022/01/19 08:54:14;;;;;;;15.30;13.67;;;5.10;97.20;;;;;;1694973;29;20210;-82
2022/01/19 08:55:07;;;;;;;15.07;13.50;;;5.10;97.20;;;;;;1695241;29;20594;-82
2022/01/19 08:55:59;;;;;;;14.90;13.25;;;5.20;97.20;;;;;;1695302;29;20231;-82
2022/01/19 08:56:50;;;;;;;17.00;13.85;;;5.30;97.20;;;;;;1695490;29;20243;-82
2022/01/19 08:57:42;;;;;;;17.13;14.80;;;5.30;97.20;;;;;;1694887;29;20208;-82
2022/01/19 08:58:33;;;;;;;15.48;13.98;;;5.40;97.20;;;;;;1695158;29;20480;-82
2022/01/19 08:59:25;;;;;;;15.40;13.97;;;5.40;97.20;;;;;;1695218;29;20237;-82
2022/01/19 09:00:19;;;;;;;16.83;14.25;;;5.40;97.20;;;;;;1695166;29;20491;-82
2022/01/19 09:01:09;;;;;;;16.00;14.48;;;5.40;97.20;;;;;;1694954;29;20317;-82
2022/01/19 09:02:01;;;;;;;16.80;15.07;;;5.50;97.20;;;;;;1695348;29;20211;-82
2022/01/19 09:02:53;;;;;;;16.30;14.57;;;5.50;97.20;;;;;;1695198;29;20684;-82
2022/01/19 09:03:43;;;;;;;15.90;14.20;;;5.50;97.20;;;;;;1695271;29;20600;-82
2022/01/19 09:04:35;;;;;;;15.47;13.90;;;5.60;97.20;;;;;;1695195;29;20225;-82
2022/01/19 09:05:26;;;;;;;15.13;13.57;;;5.60;97.20;;;;;;1695385;29;20218;-82
2022/01/19 09:06:21;;;;;;;16.13;14.43;;;5.60;97.20;;;;;;1695143;29;20206;-82
2022/01/19 09:07:12;;;;;;;15.40;13.80;;;5.70;97.20;;;;;;1695110;29;20251;-82
2022/01/19 09:08:04;;;;;;;16.33;14.68;;;5.70;97.20;;;;;;1695130;29;20606;-82
2022/01/19 09:08:55;;;;;;;16.23;14.52;;;5.70;97.20;;;;;;1695208;29;20262;-82
2022/01/19 09:09:47;;;;;;;16.00;14.32;;;5.70;97.20;;;;;;1695153;29;20687;-82
2022/01/19 09:10:40;;;;;;;16.23;14.52;;;5.70;97.20;;;;;;1694930;29;20742;-82
2022/01/19 09:11:32;;;;;;;15.55;13.95;;;5.80;97.20;;;;;;1694896;29;20207;-82
2022/01/19 09:12:22;;;;;;;16.33;14.73;;;5.80;97.20;;;;;;1694777;29;20690;-82
2022/01/19 09:13:14;;;;;;;15.40;13.90;;;5.90;97.20;;;;;;1694526;29;20472;-82
2022/01/19 09:14:07;;;;;;;14.60;13.23;;;5.90;97.20;;;;;;1694768;29;20611;-82
2022/01/19 09:14:59;;;;;;;16.90;14.20;;;6.00;97.20;;;;;;1694981;29;20695;-82
2022/01/19 09:15:50;;;;;;;16.10;14.52;;;6.00;97.20;;;;;;1694907;29;20248;-83
2022/01/19 09:16:41;;;;;;;15.53;13.93;;;6.00;97.20;;;;;;1694890;29;20204;-82
2022/01/19 09:17:32;;;;;;;15.52;14.10;;;6.10;97.20;;;;;;1694670;29;20207;-82
2022/01/19 09:18:24;;;;;;;15.43;13.90;;;6.10;97.20;;;;;;1694768;29;20330;-82
2022/01/19 09:19:16;;;;;;;14.95;13.45;;;6.20;97.20;;;;;;1694957;29;20588;-82
2022/01/19 09:20:09;;;;;;;16.08;14.43;;;6.30;97.20;;;;;;1694912;29;20204;-82
2022/01/19 09:21:00;;;;;;;14.35;12.95;;;6.40;97.20;;;;;;1694547;29;20224;-82
2022/01/19 09:21:54;;;;;;;15.50;13.90;;;6.40;97.20;;;;;;1694630;29;20200;-82
2022/01/19 09:22:45;;;;;;;14.98;13.38;;;6.50;97.20;;;;;;1694915;29;20268;-82
2022/01/19 09:23:37;;;;;;;14.27;12.88;;;6.60;97.20;;;;;;1694829;29;20208;-82
2022/01/19 09:24:29;;;;;;;14.23;12.82;;;6.70;97.20;;;;;;1694780;29;20208;-82
2022/01/19 09:25:20;;;;;;;15.32;13.80;;;6.70;97.20;;;;;;1694934;29;20203;-84
2022/01/19 09:26:12;;;;;;;14.17;12.77;;;6.80;97.20;;;;;;1694798;29;20202;-82
2022/01/19 09:27:03;;;;;;;14.98;13.30;;;6.90;97.20;;;;;;1694787;29;20447;-82
2022/01/19 09:27:55;;;;;;;14.55;13.15;;;7.00;97.20;;;;;;1694744;29;20238;-82
2022/01/19 09:28:46;;;;;;;14.10;12.60;;;7.00;97.20;;;;;;1694838;29;20942;-82
2022/01/19 09:29:42;;;;;;;13.90;12.60;;;7.10;97.20;;;;;;1694897;29;20203;-82
2022/01/19 09:30:32;;;;;;;13.98;12.65;;;7.20;97.20;;;;;;1694730;29;20255;-82
2022/01/19 09:31:24;;;;;;;14.70;13.10;;;7.30;97.20;;;;;;1694947;29;20207;-82
2022/01/19 09:32:15;;;;;;;15.15;12.10;;;7.30;97.20;;;;;;1695049;29;20694;-82
2022/01/19 09:33:09;;;;;;;14.48;13.07;;;7.40;97.20;;;;;;1694851;29;20207;-81
2022/01/19 09:34:08;;;;;;;14.32;12.90;;;7.50;97.20;;;;;;1694880;29;20215;-82
2022/01/19 09:35:06;;;;;;;14.65;13.43;;;7.60;97.20;;;;;;1695053;29;20727;-82
2022/01/19 09:37:08;;;;;;;14.43;13.02;;;7.70;97.20;;;;;;1684522;29;20203;-82
2022/01/19 09:37:59;;;;;;;13.60;12.30;;;7.80;97.20;;;;;;1694648;29;20207;-82
2022/01/19 09:38:50;;;;;;;13.30;12.03;;;7.90;97.20;;;;;;1694855;29;20282;-82
2022/01/19 09:39:42;;;;;;;15.07;12.77;;;7.90;97.20;;;;;;1694803;29;20623;-82
2022/01/19 09:40:33;;;;;;;13.07;11.88;;;8.00;97.20;;;;;;1694782;29;20270;-82
2022/01/19 09:41:25;;;;;;;13.13;11.80;;;8.00;97.20;;;;;;1694800;29;20230;-82
2022/01/19 09:42:17;;;;;;;13.88;12.52;;;8.10;97.20;;;;;;1694927;29;20712;-82
2022/01/19 09:43:09;;;;;;;14.02;12.60;;;8.20;97.20;;;;;;1694962;29;20211;-82
2022/01/19 09:44:01;;;;;;;13.20;11.73;;;8.30;97.20;;;;;;1694394;29;20199;-82
2022/01/19 09:44:52;;;;;;;13.45;12.20;;;8.40;97.20;;;;;;1694745;29;20207;-82
2022/01/19 09:45:44;;;;;;;13.75;12.55;;;8.40;97.20;;;;;;1694802;29;20208;-82
2022/01/19 09:46:36;;;;;;;12.77;11.48;;;8.50;97.20;;;;;;1694988;29;20215;-82
2022/01/19 09:47:28;;;;;;;12.98;11.00;;;8.50;97.20;;;;;;1694864;29;20208;-82
2022/01/19 09:48:20;;;;;;;12.32;11.15;;;8.60;97.20;;;;;;1694421;29;20973;-82
2022/01/19 09:49:12;;;;;;;12.65;11.45;;;8.80;97.20;;;;;;1694680;29;20216;-82
2022/01/19 09:50:05;;;;;;;13.15;11.75;;;8.90;97.20;;;;;;1694696;29;20212;-82
2022/01/19 09:50:58;;;;;;;12.68;11.52;;;9.00;97.20;;;;;;1694601;29;20645;-82
2022/01/19 09:51:51;;;;;;;12.13;10.93;;;9.10;97.20;;;;;;1694774;29;20242;-82
2022/01/19 09:52:45;;;;;;;13.10;11.80;;;9.30;97.20;;;;;;1694535;29;20300;-82
2022/01/19 09:53:35;;;;;;;12.23;11.07;;;9.40;97.20;;;;;;1694668;29;20211;-82
2022/01/19 09:54:29;;;;;;;11.57;10.50;;;9.50;97.20;;;;;;1694809;29;20287;-82
2022/01/19 09:55:21;;;;;;;12.18;10.90;;;9.60;97.20;;;;;;1695220;29;20210;-82
2022/01/19 09:56:12;;;;;;;13.82;12.50;;;9.70;97.20;;;;;;1695805;29;20208;-82
2022/01/19 09:57:04;;;;;;;12.90;11.70;;;9.70;97.20;;;;;;1696163;29;20211;-82
2022/01/19 09:57:55;;;;;;;12.55;11.45;;;9.80;97.20;;;;;;1695661;29;20210;-82
2022/01/19 09:58:46;;;;;;;12.50;11.40;;;9.90;97.20;;;;;;1695322;29;20569;-82
2022/01/19 09:59:38;;;;;;;12.27;11.18;;;9.90;97.20;;;;;;1695942;29;20204;-82
2022/01/19 10:00:29;;;;;;;12.88;11.63;;;10.00;97.20;;;;;;1695846;29;20207;-82
2022/01/19 10:01:22;;;;;;;12.30;11.20;;;10.10;97.20;;;;;;1695781;29;20214;-82
2022/01/19 10:02:16;;;;;;;13.82;12.43;;;10.20;97.20;;;;;;1696126;29;20207;-82
2022/01/19 10:03:20;;;;;;;12.27;11.18;;;10.30;97.20;;;;;;1695736;29;20211;-82
2022/01/19 10:04:16;;;;;;;12.70;11.52;;;10.40;97.20;;;;;;1695759;29;20343;-82
2022/01/19 10:05:10;;;;;;;12.50;11.30;;;10.60;97.20;;;;;;1695921;29;20740;-82
2022/01/19 10:06:06;;;;;;;12.40;11.30;;;10.70;97.20;;;;;;1695944;29;20203;-82
2022/01/19 10:07:15;;;;;;;12.65;11.43;;;10.80;97.20;;;;;;1695885;29;20601;-82
2022/01/19 10:08:07;;;;;;;11.90;10.75;;;11.00;97.20;;;;;;1695704;29;20239;-82
2022/01/19 10:08:59;;;;;;;12.25;10.95;;;11.10;97.20;;;;;;1695791;29;20298;-82
2022/01/19 10:09:53;;;;;;;11.32;10.23;;;11.30;97.20;;;;;;1696030;29;20298;-82
2022/01/19 10:10:45;;;;;;;11.93;10.73;;;11.30;97.20;;;;;;1696225;29;20315;-82
2022/01/19 10:17:31;;;;;;;12.00;10.80;;;11.90;97.20;;;;;;1696102;29;20214;-82
2022/01/19 10:18:25;;;;;;;12.00;10.85;;;12.00;97.20;;;;;;1695648;29;20207;-82
2022/01/19 10:19:19;;;;;;;12.18;10.98;;;12.10;97.20;;;;;;1695739;29;20295;-82
2022/01/19 10:20:21;;;;;;;12.40;11.30;;;12.20;97.20;;;;;;1695805;29;20207;-82
2022/01/19 10:21:16;;;;;;;12.07;11.07;;;12.20;97.20;;;;;;1695800;29;20216;-82
2022/01/19 10:22:12;;;;;;;12.13;10.98;;;12.30;97.20;;;;;;1695841;29;20235;-82
2022/01/19 10:23:03;;;;;;;11.57;10.38;;;12.40;97.20;;;;;;1695501;29;20208;-82
2022/01/19 10:23:57;;;;;;;11.93;10.77;;;12.50;97.20;;;;;;1695521;29;20215;-82
2022/01/19 10:24:51;;;;;;;12.27;11.05;;;12.60;97.20;;;;;;1695604;29;20211;-83
2022/01/19 10:25:49;;;;;;;11.93;10.82;;;12.80;97.20;;;;;;1695759;29;20204;-83
2022/01/19 10:26:41;;;;;;;12.90;11.18;;;12.90;97.20;;;;;;1695788;29;20208;-81
2022/01/19 10:27:34;;;;;;;11.65;10.52;;;13.00;97.20;;;;;;1695565;29;20213;-81
2022/01/19 10:28:26;;;;;;;11.70;10.70;;;13.10;97.20;;;;;;1695260;29;20200;-82
2022/01/19 10:29:18;;;;;;;11.88;10.75;;;13.20;97.20;;;;;;1695404;29;20263;-81
2022/01/19 10:30:28;;;;;;;12.23;10.95;;;13.30;97.20;;;;;;1695306;29;20211;-81
2022/01/19 10:31:19;;;;;;;12.05;10.95;;;13.30;97.20;;;;;;1695313;29;20216;-81
2022/01/19 10:32:11;;;;;;;11.70;10.50;;;13.30;97.20;;;;;;1695529;29;20204;-81
2022/01/19 10:33:02;;;;;;;12.30;11.10;;;13.40;97.20;;;;;;1695444;29;20671;-82
2022/01/19 10:34:10;;;;;;;11.38;10.25;;;13.40;97.20;;;;;;1695405;29;20324;-81
2022/01/19 10:35:14;;;;;;;12.43;11.13;;;13.40;97.20;;;;;;1695285;29;20208;-81